createdAt,value
2019-06-15T00:01:30.449Z,7.90
2019-06-15T00:02:09.731Z,9.33
2019-06-15T00:02:42.744Z,7.80
2019-06-15T00:03:16.414Z,8.35
2019-06-15T00:03:49.049Z,8.35
2019-06-15T00:04:21.720Z,8.03
2019-06-15T00:04:54.377Z,8.30
2019-06-15T00:05:27.284Z,8.78
2019-06-15T00:05:59.922Z,8.78
2019-06-15T00:06:32.546Z,8.60
2019-06-15T00:07:05.193Z,9.03
2019-06-15T00:07:38.514Z,7.45
2019-06-15T00:08:11.130Z,8.85
2019-06-15T00:08:43.771Z,8.83
2019-06-15T00:09:16.404Z,7.55
2019-06-15T00:09:49.400Z,8.40
2019-06-15T00:10:22.037Z,8.13
2019-06-15T00:10:54.990Z,8.35
2019-06-15T00:11:27.647Z,8.65
2019-06-15T00:12:00.292Z,8.40
2019-06-15T00:12:32.924Z,8.95
2019-06-15T00:13:05.962Z,8.35
2019-06-15T00:13:38.637Z,8.10
2019-06-15T00:14:11.580Z,8.68
2019-06-15T00:14:44.608Z,8.13
2019-06-15T00:15:17.380Z,8.08
2019-06-15T00:15:50.024Z,8.20
2019-06-15T00:16:23.161Z,8.58
2019-06-15T00:16:55.814Z,8.05
2019-06-15T00:17:28.459Z,8.90
2019-06-15T00:18:01.489Z,8.75
2019-06-15T00:18:34.140Z,8.40
2019-06-15T00:19:07.205Z,8.80
2019-06-15T00:19:40.246Z,8.75
2019-06-15T00:20:13.691Z,8.18
2019-06-15T00:20:46.335Z,9.05
2019-06-15T00:21:18.985Z,7.80
2019-06-15T00:21:51.613Z,8.70
2019-06-15T00:22:24.944Z,8.18
2019-06-15T00:22:57.598Z,8.68
2019-06-15T00:23:30.639Z,8.65
2019-06-15T00:24:03.371Z,8.93
2019-06-15T00:24:36.521Z,9.05
2019-06-15T00:25:09.778Z,8.28
2019-06-15T00:25:42.400Z,8.15
2019-06-15T00:26:15.070Z,8.43
2019-06-15T00:26:47.712Z,8.55
2019-06-15T00:27:20.639Z,8.33
2019-06-15T00:27:53.367Z,9.10
2019-06-15T00:28:26.530Z,9.13
2019-06-15T00:28:59.144Z,8.63
2019-06-15T00:29:31.782Z,8.50
2019-06-15T00:30:05.001Z,9.18
2019-06-15T00:30:37.650Z,9.25
2019-06-15T00:31:10.297Z,8.83
2019-06-15T00:31:42.967Z,8.83
2019-06-15T00:32:15.621Z,7.95
2019-06-15T00:32:48.420Z,8.85
2019-06-15T00:33:21.520Z,8.35
2019-06-15T00:33:54.268Z,8.55
2019-06-15T00:34:27.081Z,9.03
2019-06-15T00:34:59.711Z,9.38
2019-06-15T00:35:32.342Z,9.13
2019-06-15T00:36:04.993Z,8.65
2019-06-15T00:36:37.638Z,8.30
2019-06-15T00:37:10.635Z,8.83
2019-06-15T00:37:43.632Z,8.00
2019-06-15T00:38:16.270Z,8.35
2019-06-15T00:38:48.904Z,9.73
2019-06-15T00:39:21.561Z,8.45
2019-06-15T00:39:54.289Z,8.50
2019-06-15T00:40:26.923Z,9.40
2019-06-15T00:40:59.727Z,8.43
2019-06-15T00:41:32.653Z,8.38
2019-06-15T00:42:05.313Z,9.50
2019-06-15T00:42:37.985Z,9.00
2019-06-15T00:43:11.319Z,8.90
2019-06-15T00:43:43.974Z,8.35
2019-06-15T00:44:17.367Z,8.90
2019-06-15T00:44:50.344Z,9.45
2019-06-15T00:45:22.991Z,8.83
2019-06-15T00:45:55.627Z,8.30
2019-06-15T00:46:28.280Z,8.90
2019-06-15T00:47:01.217Z,9.00
2019-06-15T00:47:33.886Z,8.68
2019-06-15T00:48:07.077Z,8.63
2019-06-15T00:48:39.709Z,9.05
2019-06-15T00:49:12.759Z,7.62
2019-06-15T00:49:45.728Z,8.68
2019-06-15T00:50:18.370Z,7.67
2019-06-15T00:50:51.049Z,9.18
2019-06-15T00:51:24.077Z,7.97
2019-06-15T00:51:56.721Z,9.05
2019-06-15T00:52:29.659Z,8.68
2019-06-15T00:53:02.706Z,9.30
2019-06-15T00:53:35.392Z,9.10
2019-06-15T00:54:08.332Z,8.93
2019-06-15T00:54:50.045Z,9.13
2019-06-15T00:55:15.439Z,8.45
2019-06-15T00:55:48.480Z,8.33
2019-06-15T00:56:21.126Z,9.28
2019-06-15T00:56:54.088Z,8.90
2019-06-15T00:57:27.005Z,9.85
2019-06-15T00:57:59.645Z,9.13
2019-06-15T00:58:32.318Z,8.98
2019-06-15T00:59:05.581Z,9.50
2019-06-15T00:59:38.566Z,9.65
2019-06-15T01:00:11.298Z,9.30
2019-06-15T01:00:43.926Z,8.40
2019-06-15T01:01:16.981Z,8.23
2019-06-15T01:01:49.645Z,8.85
2019-06-15T01:02:22.278Z,8.88
2019-06-15T01:02:55.017Z,9.50
2019-06-15T01:03:28.343Z,9.45
2019-06-15T01:04:00.997Z,9.50
2019-06-15T01:04:34.302Z,8.70
2019-06-15T01:05:07.768Z,9.30
2019-06-15T01:05:40.775Z,9.13
2019-06-15T01:06:13.433Z,8.98
2019-06-15T01:06:46.070Z,8.80
2019-06-15T01:07:19.079Z,10.03
2019-06-15T01:07:51.724Z,9.03
2019-06-15T01:08:24.957Z,8.90
2019-06-15T01:08:57.595Z,9.75
2019-06-15T01:09:30.210Z,9.70
2019-06-15T01:10:03.364Z,9.50
2019-06-15T01:10:36.328Z,8.95
2019-06-15T01:11:09.330Z,9.58
2019-06-15T01:11:42.000Z,9.40
2019-06-15T01:12:14.953Z,9.15
2019-06-15T01:12:47.943Z,10.13
2019-06-15T01:13:21.368Z,8.93
2019-06-15T01:13:54.185Z,9.33
2019-06-15T01:14:27.196Z,9.85
2019-06-15T01:14:59.992Z,9.50
2019-06-15T01:15:33.017Z,9.43
2019-06-15T01:16:05.651Z,9.23
2019-06-15T01:16:38.310Z,8.58
2019-06-15T01:17:10.966Z,9.25
2019-06-15T01:17:44.131Z,9.23
2019-06-15T01:18:17.194Z,10.05
2019-06-15T01:18:50.126Z,8.70
2019-06-15T01:19:23.154Z,9.18
2019-06-15T01:19:55.786Z,9.35
2019-06-15T01:20:28.429Z,7.65
2019-06-15T01:21:01.085Z,9.40
2019-06-15T01:21:34.015Z,9.05
2019-06-15T01:22:07.082Z,9.03
2019-06-15T01:22:39.722Z,8.93
2019-06-15T01:23:12.761Z,9.40
2019-06-15T01:23:45.409Z,10.32
2019-06-15T01:24:18.566Z,8.75
2019-06-15T01:25:04.873Z,8.90
2019-06-15T01:25:26.029Z,9.80
2019-06-15T01:25:59.531Z,8.48
2019-06-15T01:26:32.614Z,9.43
2019-06-15T01:27:05.561Z,9.10
2019-06-15T01:27:38.459Z,9.20
2019-06-15T01:28:11.535Z,9.23
2019-06-15T01:28:44.567Z,9.05
2019-06-15T01:29:17.212Z,8.78
2019-06-15T01:29:49.835Z,8.40
2019-06-15T01:30:22.477Z,9.95
2019-06-15T01:30:55.409Z,8.03
2019-06-15T01:31:28.379Z,9.65
2019-06-15T01:32:01.045Z,9.63
2019-06-15T01:32:34.088Z,8.30
2019-06-15T01:33:06.707Z,9.00
2019-06-15T01:33:39.348Z,9.75
2019-06-15T01:34:12.379Z,9.58
2019-06-15T01:34:45.007Z,9.90
2019-06-15T01:35:17.733Z,8.63
2019-06-15T01:35:50.373Z,9.60
2019-06-15T01:36:23.003Z,9.80
2019-06-15T01:36:55.645Z,8.93
2019-06-15T01:37:28.670Z,10.15
2019-06-15T01:38:01.429Z,9.78
2019-06-15T01:38:34.456Z,9.65
2019-06-15T01:39:07.399Z,10.00
2019-06-15T01:39:40.031Z,9.85
2019-06-15T01:40:13.328Z,9.15
2019-06-15T01:40:45.958Z,9.48
2019-06-15T01:41:19.627Z,8.70
2019-06-15T01:41:52.892Z,10.72
2019-06-15T01:42:25.515Z,9.50
2019-06-15T01:42:58.183Z,9.55
2019-06-15T01:43:30.848Z,10.60
2019-06-15T01:44:03.601Z,10.45
2019-06-15T01:44:36.603Z,10.38
2019-06-15T01:45:09.526Z,10.10
2019-06-15T01:45:42.463Z,9.30
2019-06-15T01:46:15.779Z,10.28
2019-06-15T01:46:48.431Z,9.85
2019-06-15T01:47:21.081Z,9.25
2019-06-15T01:47:54.040Z,9.85
2019-06-15T01:48:27.131Z,10.03
2019-06-15T01:49:00.132Z,10.30
2019-06-15T01:49:32.771Z,9.50
2019-06-15T01:50:05.710Z,9.95
2019-06-15T01:50:38.644Z,9.73
2019-06-15T01:51:11.640Z,10.45
2019-06-15T01:51:44.257Z,10.85
2019-06-15T01:52:16.902Z,10.20
2019-06-15T01:52:50.135Z,9.25
2019-06-15T01:53:22.755Z,10.08
2019-06-15T01:53:55.432Z,10.45
2019-06-15T01:54:28.376Z,11.30
2019-06-15T01:55:01.016Z,9.95
2019-06-15T01:55:34.007Z,11.45
2019-06-15T01:56:07.014Z,9.23
2019-06-15T01:56:39.652Z,9.98
2019-06-15T01:57:12.287Z,10.48
2019-06-15T01:57:45.214Z,9.73
2019-06-15T01:58:17.871Z,10.10
2019-06-15T01:58:51.527Z,10.70
2019-06-15T01:59:24.203Z,10.90
2019-06-15T01:59:56.838Z,9.73
2019-06-15T02:00:30.002Z,10.63
2019-06-15T02:01:02.659Z,10.60
2019-06-15T02:01:35.631Z,11.63
2019-06-15T02:02:08.582Z,9.75
2019-06-15T02:02:41.233Z,9.45
2019-06-15T02:03:14.504Z,11.20
2019-06-15T02:03:47.471Z,9.88
2019-06-15T02:04:20.424Z,10.28
2019-06-15T02:04:53.397Z,9.68
2019-06-15T02:05:26.040Z,10.72
2019-06-15T02:05:58.722Z,10.60
2019-06-15T02:06:31.319Z,10.60
2019-06-15T02:07:04.068Z,10.43
2019-06-15T02:07:36.681Z,11.78
2019-06-15T02:08:09.742Z,10.90
2019-06-15T02:08:42.641Z,10.90
2019-06-15T02:09:15.290Z,10.78
2019-06-15T02:09:48.097Z,11.43
2019-06-15T02:10:32.444Z,11.48
2019-06-15T02:11:05.378Z,9.93
2019-06-15T02:11:38.022Z,10.00
2019-06-15T02:12:10.975Z,10.35
2019-06-15T02:12:44.082Z,10.93
2019-06-15T02:13:16.727Z,10.30
2019-06-15T02:13:49.370Z,10.28
2019-06-15T02:14:22.393Z,9.68
2019-06-15T02:14:55.050Z,10.95
2019-06-15T02:15:27.681Z,10.53
2019-06-15T02:16:02.139Z,10.05
2019-06-15T02:16:34.805Z,10.80
2019-06-15T02:17:07.767Z,10.20
2019-06-15T02:17:41.097Z,10.68
2019-06-15T02:18:13.737Z,10.20
2019-06-15T02:18:46.371Z,10.90
2019-06-15T02:19:19.868Z,11.53
2019-06-15T02:19:52.532Z,9.60
2019-06-15T02:20:25.146Z,9.78
2019-06-15T02:20:57.788Z,11.05
2019-06-15T02:21:30.462Z,10.82
2019-06-15T02:22:03.089Z,10.82
2019-06-15T02:22:36.029Z,11.00
2019-06-15T02:23:08.674Z,10.40
2019-06-15T02:23:41.304Z,10.10
2019-06-15T02:24:13.939Z,9.93
2019-06-15T02:24:46.835Z,10.65
2019-06-15T02:25:34.851Z,11.03
2019-06-15T02:25:57.851Z,10.80
2019-06-15T02:26:30.834Z,10.18
2019-06-15T02:27:03.828Z,10.35
2019-06-15T02:27:36.659Z,10.95
2019-06-15T02:28:09.289Z,9.55
2019-06-15T02:28:42.251Z,10.03
2019-06-15T02:29:14.897Z,10.53
2019-06-15T02:29:47.536Z,10.45
2019-06-15T02:30:26.217Z,9.85
2019-06-15T02:30:58.849Z,10.50
2019-06-15T02:31:32.321Z,10.55
2019-06-15T02:32:05.051Z,11.93
2019-06-15T02:32:37.750Z,11.00
2019-06-15T02:33:10.385Z,10.18
2019-06-15T02:33:43.772Z,10.75
2019-06-15T02:34:16.396Z,11.03
2019-06-15T02:34:49.025Z,11.60
2019-06-15T02:35:21.660Z,11.53
2019-06-15T02:35:54.285Z,10.68
2019-06-15T02:36:26.935Z,10.32
2019-06-15T02:37:00.300Z,11.33
2019-06-15T02:37:32.924Z,11.40
2019-06-15T02:38:06.065Z,10.88
2019-06-15T02:38:39.301Z,11.20
2019-06-15T02:39:11.926Z,10.70
2019-06-15T02:39:44.969Z,11.60
2019-06-15T02:40:17.702Z,11.20
2019-06-15T02:40:50.713Z,11.08
2019-06-15T02:41:23.754Z,11.15
2019-06-15T02:41:56.593Z,11.88
2019-06-15T02:42:29.244Z,12.33
2019-06-15T02:43:02.382Z,11.90
2019-06-15T02:43:35.059Z,11.53
2019-06-15T02:44:07.994Z,12.65
2019-06-15T02:44:40.983Z,11.83
2019-06-15T02:45:14.005Z,10.70
2019-06-15T02:45:46.639Z,11.38
2019-06-15T02:46:19.266Z,12.37
2019-06-15T02:46:51.911Z,12.23
2019-06-15T02:47:24.881Z,11.95
2019-06-15T02:47:57.514Z,10.68
2019-06-15T02:48:30.763Z,11.80
2019-06-15T02:49:04.193Z,11.50
2019-06-15T02:49:36.833Z,12.13
2019-06-15T02:50:10.214Z,12.47
2019-06-15T02:50:42.947Z,11.90
2019-06-15T02:51:16.146Z,12.53
2019-06-15T02:51:50.433Z,10.70
2019-06-15T02:52:23.293Z,12.07
2019-06-15T02:52:55.944Z,12.03
2019-06-15T02:53:28.909Z,10.72
2019-06-15T02:54:01.903Z,11.65
2019-06-15T02:54:34.563Z,12.85
2019-06-15T02:55:07.633Z,12.43
2019-06-15T02:55:50.111Z,11.95
2019-06-15T02:56:15.011Z,11.83
2019-06-15T02:56:47.647Z,12.10
2019-06-15T02:57:20.278Z,11.28
2019-06-15T02:57:53.180Z,11.97
2019-06-15T02:58:25.828Z,11.35
2019-06-15T02:58:59.161Z,11.15
2019-06-15T02:59:32.512Z,11.70
2019-06-15T03:00:05.587Z,11.43
2019-06-15T03:01:04.029Z,11.68
2019-06-15T03:01:36.989Z,11.60
2019-06-15T03:02:09.964Z,11.85
2019-06-15T03:02:42.616Z,10.90
2019-06-15T03:03:15.484Z,11.73
2019-06-15T03:03:48.122Z,11.18
2019-06-15T03:04:21.174Z,11.03
2019-06-15T03:04:54.189Z,11.10
2019-06-15T03:05:27.121Z,11.78
2019-06-15T03:06:00.427Z,11.63
2019-06-15T03:06:33.808Z,10.98
2019-06-15T03:07:06.752Z,11.63
2019-06-15T03:07:40.099Z,10.68
2019-06-15T03:08:13.421Z,10.30
2019-06-15T03:08:46.959Z,10.23
2019-06-15T03:09:19.899Z,11.12
2019-06-15T03:09:53.620Z,9.73
2019-06-15T03:10:27.502Z,10.68
2019-06-15T03:11:00.919Z,11.05
2019-06-15T03:11:33.950Z,9.95
2019-06-15T03:12:06.617Z,11.15
2019-06-15T03:12:39.567Z,11.03
2019-06-15T03:13:12.976Z,10.50
2019-06-15T03:13:46.154Z,10.18
2019-06-15T03:14:19.018Z,10.10
2019-06-15T03:14:56.136Z,10.68
2019-06-15T03:15:29.149Z,10.58
2019-06-15T03:16:02.141Z,10.53
2019-06-15T03:16:34.820Z,10.88
2019-06-15T03:17:08.117Z,9.80
2019-06-15T03:17:40.772Z,11.00
2019-06-15T03:18:13.399Z,9.63
2019-06-15T03:18:46.071Z,10.70
2019-06-15T03:19:18.720Z,10.32
2019-06-15T03:19:51.707Z,11.28
2019-06-15T03:20:24.348Z,9.60
2019-06-15T03:20:57.329Z,9.85
2019-06-15T03:21:30.598Z,10.55
2019-06-15T03:22:06.429Z,9.83
2019-06-15T03:22:38.035Z,10.40
2019-06-15T03:23:10.680Z,10.70
2019-06-15T03:23:43.656Z,10.78
2019-06-15T03:24:16.297Z,12.30
2019-06-15T03:24:49.298Z,10.40
2019-06-15T03:25:22.028Z,9.90
2019-06-15T03:26:05.047Z,10.82
2019-06-15T03:26:29.113Z,11.38
2019-06-15T03:27:01.716Z,10.95
2019-06-15T03:27:34.696Z,10.28
2019-06-15T03:28:07.311Z,10.53
2019-06-15T03:28:40.355Z,11.12
2019-06-15T03:29:12.985Z,10.48
2019-06-15T03:29:45.642Z,10.50
2019-06-15T03:30:18.937Z,10.48
2019-06-15T03:30:51.578Z,10.93
2019-06-15T03:31:24.208Z,9.80
2019-06-15T03:31:56.849Z,10.85
2019-06-15T03:32:29.622Z,10.95
2019-06-15T03:33:02.282Z,9.53
2019-06-15T03:33:34.919Z,10.15
2019-06-15T03:34:07.562Z,9.68
2019-06-15T03:34:40.205Z,10.78
2019-06-15T03:35:14.541Z,11.20
2019-06-15T03:35:47.182Z,10.75
2019-06-15T03:36:19.833Z,9.60
2019-06-15T03:36:52.913Z,10.60
2019-06-15T03:37:25.514Z,11.50
2019-06-15T03:37:58.544Z,10.28
2019-06-15T03:38:31.224Z,10.48
2019-06-15T03:39:05.774Z,11.03
2019-06-15T03:39:39.150Z,10.25
2019-06-15T03:40:11.916Z,10.90
2019-06-15T03:40:44.542Z,10.30
2019-06-15T03:41:17.195Z,9.60
2019-06-15T03:41:49.842Z,10.45
2019-06-15T03:42:22.511Z,10.13
2019-06-15T03:42:55.116Z,11.68
2019-06-15T03:43:28.045Z,11.60
2019-06-15T03:44:00.721Z,10.55
2019-06-15T03:44:33.373Z,9.53
2019-06-15T03:45:06.123Z,11.40
2019-06-15T03:45:38.804Z,10.00
2019-06-15T03:46:11.753Z,11.10
2019-06-15T03:46:44.389Z,10.78
2019-06-15T03:47:17.031Z,11.08
2019-06-15T03:47:49.654Z,10.70
2019-06-15T03:48:22.623Z,11.45
2019-06-15T03:48:55.287Z,10.98
2019-06-15T03:49:28.271Z,10.28
2019-06-15T03:50:00.911Z,11.25
2019-06-15T03:50:33.558Z,10.95
2019-06-15T03:51:06.183Z,11.08
2019-06-15T03:51:39.240Z,10.88
2019-06-15T03:52:11.883Z,11.50
2019-06-15T03:52:44.510Z,10.38
2019-06-15T03:53:18.143Z,10.65
2019-06-15T03:53:51.026Z,12.20
2019-06-15T03:54:23.675Z,11.15
2019-06-15T03:54:56.343Z,11.75
2019-06-15T03:55:29.388Z,10.82
2019-06-15T03:56:02.045Z,11.40
2019-06-15T03:56:35.485Z,11.10
2019-06-15T03:57:08.180Z,10.70
2019-06-15T03:57:40.841Z,10.90
2019-06-15T03:58:14.191Z,11.22
2019-06-15T03:58:46.846Z,11.10
2019-06-15T03:59:19.474Z,11.45
2019-06-15T03:59:52.551Z,11.45
2019-06-15T04:00:59.383Z,11.15
2019-06-15T04:01:38.946Z,11.45
2019-06-15T04:02:12.480Z,11.53
2019-06-15T04:02:45.124Z,11.53
2019-06-15T04:03:18.168Z,12.60
2019-06-15T04:03:51.809Z,13.18
2019-06-15T04:04:24.435Z,12.03
2019-06-15T04:04:57.531Z,12.58
2019-06-15T04:05:30.184Z,11.55
2019-06-15T04:06:02.860Z,12.10
2019-06-15T04:06:35.501Z,12.75
2019-06-15T04:07:08.428Z,12.00
2019-06-15T04:07:41.068Z,12.58
2019-06-15T04:08:13.719Z,12.30
2019-06-15T04:08:46.744Z,13.15
2019-06-15T04:09:19.371Z,14.43
2019-06-15T04:09:52.033Z,12.60
2019-06-15T04:10:24.747Z,12.88
2019-06-15T04:10:57.699Z,14.95
2019-06-15T04:11:30.375Z,14.05
2019-06-15T04:12:03.336Z,14.73
2019-06-15T04:12:36.316Z,15.05
2019-06-15T04:13:08.951Z,14.25
2019-06-15T04:13:41.611Z,15.43
2019-06-15T04:14:14.241Z,15.08
2019-06-15T04:14:47.007Z,15.32
2019-06-15T04:15:19.659Z,15.65
2019-06-15T04:15:52.455Z,15.85
2019-06-15T04:16:25.111Z,15.10
2019-06-15T04:16:57.763Z,15.75
2019-06-15T04:17:30.744Z,15.90
2019-06-15T04:18:04.304Z,16.50
2019-06-15T04:18:36.940Z,15.70
2019-06-15T04:19:09.611Z,15.50
2019-06-15T04:19:42.550Z,16.90
2019-06-15T04:20:15.191Z,14.80
2019-06-15T04:20:48.131Z,15.23
2019-06-15T04:21:21.056Z,15.23
2019-06-15T04:21:53.704Z,13.80
2019-06-15T04:22:26.753Z,14.38
2019-06-15T04:22:59.380Z,13.60
2019-06-15T04:23:32.020Z,13.60
2019-06-15T04:24:04.976Z,12.95
2019-06-15T04:24:37.628Z,12.60
2019-06-15T04:25:10.396Z,13.15
2019-06-15T04:25:44.309Z,13.05
2019-06-15T04:26:17.078Z,13.65
2019-06-15T04:26:49.732Z,13.15
2019-06-15T04:27:22.381Z,12.63
2019-06-15T04:27:55.029Z,13.50
2019-06-15T04:28:27.675Z,13.38
2019-06-15T04:29:00.319Z,13.05
2019-06-15T04:29:33.403Z,13.22
2019-06-15T04:30:06.636Z,13.98
2019-06-15T04:30:39.282Z,13.62
2019-06-15T04:31:11.943Z,12.00
2019-06-15T04:31:44.585Z,14.38
2019-06-15T04:32:17.240Z,13.65
2019-06-15T04:32:49.898Z,12.07
2019-06-15T04:33:22.616Z,13.85
2019-06-15T04:33:55.255Z,12.73
2019-06-15T04:34:27.890Z,12.63
2019-06-15T04:35:00.545Z,12.73
2019-06-15T04:35:33.551Z,12.55
2019-06-15T04:36:06.186Z,12.93
2019-06-15T04:36:38.832Z,13.83
2019-06-15T04:37:11.483Z,12.78
2019-06-15T04:37:44.115Z,14.03
2019-06-15T04:38:17.757Z,13.58
2019-06-15T04:38:50.828Z,13.53
2019-06-15T04:39:23.467Z,14.03
2019-06-15T04:39:56.115Z,13.30
2019-06-15T04:40:28.766Z,14.07
2019-06-15T04:41:01.727Z,14.07
2019-06-15T04:41:34.483Z,13.30
2019-06-15T04:42:07.124Z,13.30
2019-06-15T04:42:40.539Z,14.18
2019-06-15T04:43:13.163Z,13.58
2019-06-15T04:43:46.195Z,14.18
2019-06-15T04:44:18.899Z,13.90
2019-06-15T04:44:51.591Z,14.30
2019-06-15T04:45:24.229Z,14.33
2019-06-15T04:45:57.827Z,15.70
2019-06-15T04:46:32.157Z,15.65
2019-06-15T04:47:05.215Z,14.03
2019-06-15T04:47:38.172Z,15.00
2019-06-15T04:48:10.808Z,15.23
2019-06-15T04:48:43.468Z,15.72
2019-06-15T04:49:16.424Z,14.53
2019-06-15T04:49:49.784Z,14.80
2019-06-15T04:50:22.593Z,15.10
2019-06-15T04:50:55.229Z,15.55
2019-06-15T04:51:28.192Z,16.23
2019-06-15T04:52:01.157Z,15.88
2019-06-15T04:52:33.997Z,16.05
2019-06-15T04:53:06.662Z,16.30
2019-06-15T04:53:39.996Z,17.50
2019-06-15T04:54:12.648Z,18.82
2019-06-15T04:54:45.295Z,18.37
2019-06-15T04:55:17.976Z,17.85
2019-06-15T04:55:50.924Z,19.40
2019-06-15T04:56:23.575Z,18.05
2019-06-15T04:56:56.670Z,18.65
2019-06-15T04:57:29.709Z,18.10
2019-06-15T04:58:02.738Z,16.95
2019-06-15T04:58:35.387Z,18.67
2019-06-15T04:59:08.030Z,19.12
2019-06-15T04:59:40.667Z,17.35
2019-06-15T05:00:13.518Z,19.10
2019-06-15T05:00:46.236Z,17.95
2019-06-15T05:01:19.423Z,19.10
2019-06-15T05:01:52.910Z,17.82
2019-06-15T05:02:27.424Z,18.67
2019-06-15T05:03:00.295Z,18.42
2019-06-15T05:03:32.974Z,17.70
2019-06-15T05:04:05.627Z,17.73
2019-06-15T05:04:38.768Z,19.00
2019-06-15T05:05:12.097Z,15.45
2019-06-15T05:05:44.743Z,15.63
2019-06-15T05:06:17.412Z,14.47
2019-06-15T05:06:50.061Z,15.45
2019-06-15T05:07:22.687Z,14.50
2019-06-15T05:07:56.039Z,14.07
2019-06-15T05:08:28.674Z,14.07
2019-06-15T05:09:01.615Z,13.53
2019-06-15T05:09:34.236Z,12.80
2019-06-15T05:10:07.079Z,12.70
2019-06-15T05:10:39.707Z,12.37
2019-06-15T05:11:12.645Z,11.68
2019-06-15T05:11:45.680Z,13.20
2019-06-15T05:12:19.160Z,13.15
2019-06-15T05:12:52.197Z,11.48
2019-06-15T05:13:24.823Z,12.33
2019-06-15T05:13:57.819Z,12.00
2019-06-15T05:14:30.493Z,12.90
2019-06-15T05:15:03.675Z,12.18
2019-06-15T05:15:36.522Z,12.65
2019-06-15T05:16:09.158Z,11.90
2019-06-15T05:16:41.786Z,11.83
2019-06-15T05:17:14.455Z,12.73
2019-06-15T05:17:47.478Z,11.75
2019-06-15T05:18:20.130Z,11.50
2019-06-15T05:18:53.148Z,12.13
2019-06-15T05:19:26.210Z,10.98
2019-06-15T05:19:58.895Z,13.08
2019-06-15T05:20:31.487Z,11.08
2019-06-15T05:21:04.149Z,12.35
2019-06-15T05:21:37.458Z,12.10
2019-06-15T05:22:10.710Z,11.25
2019-06-15T05:22:44.049Z,11.93
2019-06-15T05:23:16.665Z,12.18
2019-06-15T05:23:49.296Z,12.00
2019-06-15T05:24:21.922Z,12.35
2019-06-15T05:24:54.556Z,11.48
2019-06-15T05:25:27.211Z,11.28
2019-06-15T05:25:59.846Z,11.30
2019-06-15T05:26:32.521Z,12.07
2019-06-15T05:27:06.591Z,11.60
2019-06-15T05:27:39.902Z,12.35
2019-06-15T05:28:12.567Z,13.05
2019-06-15T05:28:45.208Z,10.58
2019-06-15T05:29:18.586Z,12.03
2019-06-15T05:29:51.858Z,11.08
2019-06-15T05:30:24.508Z,11.80
2019-06-15T05:30:57.207Z,11.25
2019-06-15T05:31:29.856Z,11.03
2019-06-15T05:32:02.608Z,12.10
2019-06-15T05:32:35.259Z,10.88
2019-06-15T05:33:07.911Z,10.15
2019-06-15T05:33:40.888Z,11.03
2019-06-15T05:34:13.554Z,11.10
2019-06-15T05:34:46.509Z,10.70
2019-06-15T05:35:19.249Z,10.45
2019-06-15T05:35:51.892Z,10.15
2019-06-15T05:36:24.532Z,11.40
2019-06-15T05:36:57.186Z,10.88
2019-06-15T05:37:29.984Z,10.35
2019-06-15T05:38:02.627Z,9.95
2019-06-15T05:38:35.299Z,11.68
2019-06-15T05:39:07.961Z,10.08
2019-06-15T05:39:40.607Z,10.23
2019-06-15T05:40:15.412Z,10.80
2019-06-15T05:40:48.439Z,9.98
2019-06-15T05:41:21.055Z,9.95
2019-06-15T05:41:54.032Z,9.90
2019-06-15T05:42:28.879Z,10.38
2019-06-15T05:43:01.534Z,9.93
2019-06-15T05:43:34.153Z,10.32
2019-06-15T05:44:06.798Z,10.23
2019-06-15T05:44:39.503Z,10.58
2019-06-15T05:45:12.941Z,10.13
2019-06-15T05:45:45.580Z,10.80
2019-06-15T05:46:18.329Z,10.00
2019-06-15T05:46:50.994Z,10.28
2019-06-15T05:47:23.679Z,10.43
2019-06-15T05:47:56.316Z,10.80
2019-06-15T05:48:28.963Z,12.95
2019-06-15T05:49:01.612Z,10.43
2019-06-15T05:49:34.633Z,11.20
2019-06-15T05:50:08.129Z,10.53
2019-06-15T05:50:41.212Z,11.68
2019-06-15T05:51:14.192Z,11.00
2019-06-15T05:51:46.835Z,9.58
2019-06-15T05:52:20.211Z,10.80
2019-06-15T05:52:53.185Z,11.43
2019-06-15T05:53:25.844Z,10.00
2019-06-15T05:53:58.503Z,9.10
2019-06-15T05:54:31.227Z,10.13
2019-06-15T05:55:04.497Z,10.18
2019-06-15T05:55:37.188Z,10.50
2019-06-15T05:56:09.843Z,9.88
2019-06-15T05:56:42.510Z,9.95
2019-06-15T05:57:21.643Z,10.05
2019-06-15T05:57:49.583Z,10.20
2019-06-15T05:58:22.438Z,11.10
2019-06-15T05:58:55.069Z,9.85
2019-06-15T05:59:27.714Z,10.58
2019-06-15T06:00:00.755Z,10.93
2019-06-15T06:00:33.425Z,10.55
2019-06-15T06:01:06.096Z,8.95
2019-06-15T06:01:38.744Z,9.95
2019-06-15T06:02:11.688Z,9.75
2019-06-15T06:02:44.353Z,10.75
2019-06-15T06:03:16.988Z,9.43
2019-06-15T06:03:50.172Z,10.43
2019-06-15T06:04:22.816Z,10.23
2019-06-15T06:04:55.446Z,11.20
2019-06-15T06:05:28.091Z,10.18
2019-06-15T06:06:00.758Z,9.83
2019-06-15T06:06:33.427Z,9.65
2019-06-15T06:07:06.074Z,10.03
2019-06-15T06:07:38.738Z,9.75
2019-06-15T06:08:11.746Z,10.30
2019-06-15T06:08:44.390Z,10.43
2019-06-15T06:09:17.014Z,9.63
2019-06-15T06:09:49.664Z,9.70
2019-06-15T06:10:22.329Z,10.30
2019-06-15T06:10:55.662Z,9.93
2019-06-15T06:11:28.683Z,10.70
2019-06-15T06:12:01.682Z,9.85
2019-06-15T06:12:34.436Z,10.08
2019-06-15T06:13:07.085Z,9.78
2019-06-15T06:13:40.482Z,9.28
2019-06-15T06:14:13.121Z,10.50
2019-06-15T06:14:45.785Z,10.20
2019-06-15T06:15:18.516Z,10.00
2019-06-15T06:15:51.643Z,10.55
2019-06-15T06:16:24.551Z,11.05
2019-06-15T06:16:57.172Z,9.58
2019-06-15T06:17:30.210Z,10.03
2019-06-15T06:18:03.241Z,10.25
2019-06-15T06:18:36.138Z,10.15
2019-06-15T06:19:08.817Z,10.43
2019-06-15T06:19:41.568Z,10.80
2019-06-15T06:20:14.544Z,10.20
2019-06-15T06:20:47.260Z,10.78
2019-06-15T06:21:19.904Z,10.15
2019-06-15T06:21:52.561Z,10.68
2019-06-15T06:22:25.217Z,9.90
2019-06-15T06:22:57.879Z,9.98
2019-06-15T06:23:30.956Z,9.35
2019-06-15T06:24:03.649Z,9.73
2019-06-15T06:24:36.618Z,10.10
2019-06-15T06:25:09.756Z,9.83
2019-06-15T06:25:42.399Z,10.10
2019-06-15T06:26:15.048Z,9.85
2019-06-15T06:26:47.680Z,10.55
2019-06-15T06:27:33.362Z,9.45
2019-06-15T06:27:55.175Z,9.65
2019-06-15T06:28:28.229Z,8.58
2019-06-15T06:29:00.872Z,10.35
2019-06-15T06:29:33.524Z,9.60
2019-06-15T06:30:06.637Z,9.15
2019-06-15T06:30:39.287Z,9.18
2019-06-15T06:31:12.246Z,9.65
2019-06-15T06:31:44.878Z,9.80
2019-06-15T06:32:17.590Z,8.78
2019-06-15T06:32:50.239Z,8.95
2019-06-15T06:33:22.888Z,9.70
2019-06-15T06:33:55.839Z,9.20
2019-06-15T06:34:28.484Z,9.45
2019-06-15T06:35:01.521Z,9.63
2019-06-15T06:35:34.193Z,9.13
2019-06-15T06:36:06.864Z,8.90
2019-06-15T06:36:39.516Z,8.98
2019-06-15T06:37:12.154Z,9.48
2019-06-15T06:37:44.792Z,9.60
2019-06-15T06:38:17.757Z,8.15
2019-06-15T06:38:50.401Z,8.63
2019-06-15T06:39:23.609Z,8.60
2019-06-15T06:39:56.230Z,8.65
2019-06-15T06:40:28.863Z,9.25
2019-06-15T06:41:01.603Z,8.88
2019-06-15T06:41:34.259Z,8.23
2019-06-15T06:42:06.886Z,8.05
2019-06-15T06:42:40.181Z,8.05
2019-06-15T06:43:12.813Z,8.35
2019-06-15T06:43:45.485Z,9.40
2019-06-15T06:44:18.121Z,8.35
2019-06-15T06:44:51.203Z,8.50
2019-06-15T06:45:23.954Z,8.43
2019-06-15T06:45:56.622Z,7.87
2019-06-15T06:46:29.594Z,8.43
2019-06-15T06:47:02.698Z,8.30
2019-06-15T06:47:36.153Z,7.67
2019-06-15T06:48:09.167Z,8.55
2019-06-15T06:48:41.785Z,8.33
2019-06-15T06:49:14.441Z,8.28
2019-06-15T06:49:47.531Z,7.62
2019-06-15T06:50:20.443Z,7.87
2019-06-15T06:50:53.114Z,7.53
2019-06-15T06:51:25.759Z,8.45
2019-06-15T06:51:58.993Z,9.13
2019-06-15T06:52:32.123Z,8.25
2019-06-15T06:53:04.761Z,8.95
2019-06-15T06:53:37.440Z,8.60
2019-06-15T06:54:10.458Z,8.78
2019-06-15T06:54:43.071Z,8.30
2019-06-15T06:55:16.033Z,8.40
2019-06-15T06:55:49.121Z,8.00
2019-06-15T06:56:21.908Z,8.30
2019-06-15T06:56:55.187Z,8.78
2019-06-15T06:57:28.267Z,8.85
2019-06-15T06:58:01.357Z,9.30
2019-06-15T06:58:34.448Z,8.33
2019-06-15T06:59:07.114Z,9.35
2019-06-15T06:59:40.423Z,8.05
2019-06-15T07:00:14.543Z,7.80
2019-06-15T07:00:47.199Z,8.83
2019-06-15T07:01:20.781Z,8.60
2019-06-15T07:01:53.434Z,8.65
2019-06-15T07:02:26.262Z,7.87
2019-06-15T07:02:58.974Z,8.20
2019-06-15T07:03:31.609Z,7.90
2019-06-15T07:04:04.280Z,9.43
2019-06-15T07:04:37.330Z,7.85
2019-06-15T07:05:10.876Z,8.98
2019-06-15T07:05:43.609Z,8.00
2019-06-15T07:06:16.544Z,9.10
2019-06-15T07:06:49.254Z,9.38
2019-06-15T07:07:22.562Z,8.25
2019-06-15T07:07:55.189Z,9.35
2019-06-15T07:08:28.105Z,8.48
2019-06-15T07:09:01.080Z,8.65
2019-06-15T07:09:33.767Z,8.90
2019-06-15T07:10:06.720Z,8.40
2019-06-15T07:10:39.380Z,9.53
2019-06-15T07:11:12.012Z,9.00
2019-06-15T07:11:45.053Z,8.83
2019-06-15T07:12:17.743Z,8.60